Fairplains, North Carolina
Current Conditions -  °F | °C
As of 5:35 PM on Monday 22 Dec 2014 (Local Time) from KUKF Reporting Station
Haze Haze  
Wind Chill: 32°   Ceiling: 300
Heat Index: 36°   Visibility: 4mi
Dew Point: 36°   Wind: 5mph
Humidity: 100%   Direction: 90°E
Pressure: 30.11"   Gusts: NA
Location:  36.1997°N, 81.0764°W
Report Text: KUKF 222235Z AUTO 09004KT 4SM BR OVC003 02/02 A3011 RMK AO2
Loading
Personal Weather Stations






























Interactive Weather Map New forecast layout! Learn more

10-Day Weather Forecast

Advertisements
Track Severe Weather on mobile